sensor_id;sensor_type;location;lat;lon;timestamp;P1;durP1;ratioP1;P2;durP2;ratioP2
20649;SDS011;10484;48.736;9.332;2022-08-19T00:01:25;12.13;;;11.13;;
20649;SDS011;10484;48.736;9.332;2022-08-19T00:03:52;12.37;;;11.27;;
20649;SDS011;10484;48.736;9.332;2022-08-19T00:06:18;13.57;;;12.37;;
20649;SDS011;10484;48.736;9.332;2022-08-19T00:08:43;14.17;;;12.87;;
20649;SDS011;10484;48.736;9.332;2022-08-19T00:11:10;13.57;;;12.47;;
20649;SDS011;10484;48.736;9.332;2022-08-19T00:13:36;13.77;;;12.57;;
20649;SDS011;10484;48.736;9.332;2022-08-19T00:16:03;12.90;;;11.73;;
20649;SDS011;10484;48.736;9.332;2022-08-19T00:18:31;13.63;;;12.43;;
20649;SDS011;10484;48.736;9.332;2022-08-19T00:20:57;14.17;;;12.67;;
20649;SDS011;10484;48.736;9.332;2022-08-19T00:23:24;14.50;;;13.13;;
20649;SDS011;10484;48.736;9.332;2022-08-19T00:25:50;14.50;;;13.20;;
20649;SDS011;10484;48.736;9.332;2022-08-19T00:28:17;15.33;;;13.93;;
20649;SDS011;10484;48.736;9.332;2022-08-19T00:30:43;15.17;;;13.77;;
20649;SDS011;10484;48.736;9.332;2022-08-19T00:33:09;14.63;;;13.40;;
20649;SDS011;10484;48.736;9.332;2022-08-19T00:35:34;14.87;;;13.57;;
20649;SDS011;10484;48.736;9.332;2022-08-19T00:38:01;15.50;;;14.20;;
20649;SDS011;10484;48.736;9.332;2022-08-19T00:40:26;14.30;;;13.00;;
20649;SDS011;10484;48.736;9.332;2022-08-19T00:42:52;15.70;;;14.20;;
20649;SDS011;10484;48.736;9.332;2022-08-19T00:45:21;15.77;;;14.27;;
20649;SDS011;10484;48.736;9.332;2022-08-19T00:47:47;16.67;;;15.27;;
20649;SDS011;10484;48.736;9.332;2022-08-19T00:50:15;15.63;;;14.33;;
20649;SDS011;10484;48.736;9.332;2022-08-19T00:52:43;15.20;;;14.00;;
20649;SDS011;10484;48.736;9.332;2022-08-19T00:55:19;16.73;;;15.23;;
20649;SDS011;10484;48.736;9.332;2022-08-19T00:57:53;16.30;;;14.90;;
20649;SDS011;10484;48.736;9.332;2022-08-19T01:00:24;14.87;;;13.50;;
20649;SDS011;10484;48.736;9.332;2022-08-19T01:02:52;15.30;;;13.90;;
20649;SDS011;10484;48.736;9.332;2022-08-19T01:05:25;16.10;;;14.53;;
20649;SDS011;10484;48.736;9.332;2022-08-19T01:07:53;15.67;;;14.27;;
20649;SDS011;10484;48.736;9.332;2022-08-19T01:10:21;15.03;;;13.70;;
20649;SDS011;10484;48.736;9.332;2022-08-19T01:12:50;14.80;;;13.60;;
20649;SDS011;10484;48.736;9.332;2022-08-19T01:15:18;16.73;;;15.13;;
20649;SDS011;10484;48.736;9.332;2022-08-19T01:17:47;15.97;;;14.57;;
20649;SDS011;10484;48.736;9.332;2022-08-19T01:20:16;16.63;;;14.93;;
20649;SDS011;10484;48.736;9.332;2022-08-19T01:25:18;14.57;;;13.27;;
20649;SDS011;10484;48.736;9.332;2022-08-19T01:27:47;16.73;;;15.13;;
20649;SDS011;10484;48.736;9.332;2022-08-19T01:30:19;17.07;;;15.57;;
20649;SDS011;10484;48.736;9.332;2022-08-19T01:32:48;15.43;;;14.07;;
20649;SDS011;10484;48.736;9.332;2022-08-19T01:35:15;15.83;;;14.40;;
20649;SDS011;10484;48.736;9.332;2022-08-19T01:37:43;16.33;;;14.83;;
20649;SDS011;10484;48.736;9.332;2022-08-19T01:40:11;15.93;;;14.43;;
20649;SDS011;10484;48.736;9.332;2022-08-19T01:42:37;15.07;;;13.67;;
20649;SDS011;10484;48.736;9.332;2022-08-19T01:45:04;15.40;;;14.10;;
20649;SDS011;10484;48.736;9.332;2022-08-19T01:47:33;16.00;;;14.50;;
20649;SDS011;10484;48.736;9.332;2022-08-19T01:50:02;15.10;;;13.80;;
20649;SDS011;10484;48.736;9.332;2022-08-19T01:52:29;16.17;;;14.67;;
20649;SDS011;10484;48.736;9.332;2022-08-19T01:54:55;14.80;;;13.10;;
20649;SDS011;10484;48.736;9.332;2022-08-19T01:57:21;17.37;;;15.97;;
20649;SDS011;10484;48.736;9.332;2022-08-19T01:59:46;15.97;;;14.67;;
20649;SDS011;10484;48.736;9.332;2022-08-19T02:02:12;17.23;;;15.67;;
20649;SDS011;10484;48.736;9.332;2022-08-19T02:04:38;16.53;;;14.93;;
20649;SDS011;10484;48.736;9.332;2022-08-19T02:07:05;16.83;;;15.40;;
20649;SDS011;10484;48.736;9.332;2022-08-19T02:09:33;16.07;;;14.47;;
20649;SDS011;10484;48.736;9.332;2022-08-19T02:11:59;16.40;;;14.90;;
20649;SDS011;10484;48.736;9.332;2022-08-19T02:14:25;16.37;;;14.90;;
20649;SDS011;10484;48.736;9.332;2022-08-19T02:16:51;16.13;;;14.23;;
20649;SDS011;10484;48.736;9.332;2022-08-19T02:19:16;15.30;;;14.00;;
20649;SDS011;10484;48.736;9.332;2022-08-19T02:21:42;18.40;;;16.57;;
20649;SDS011;10484;48.736;9.332;2022-08-19T02:24:08;16.07;;;14.57;;
20649;SDS011;10484;48.736;9.332;2022-08-19T02:26:34;16.60;;;15.07;;
20649;SDS011;10484;48.736;9.332;2022-08-19T02:29:00;16.30;;;14.90;;
20649;SDS011;10484;48.736;9.332;2022-08-19T02:31:26;17.07;;;15.37;;
20649;SDS011;10484;48.736;9.332;2022-08-19T02:33:53;15.17;;;13.67;;
20649;SDS011;10484;48.736;9.332;2022-08-19T02:36:20;15.70;;;14.20;;
20649;SDS011;10484;48.736;9.332;2022-08-19T02:38:46;15.70;;;14.30;;
20649;SDS011;10484;48.736;9.332;2022-08-19T02:41:14;15.73;;;14.00;;
20649;SDS011;10484;48.736;9.332;2022-08-19T02:43:47;16.33;;;14.73;;
20649;SDS011;10484;48.736;9.332;2022-08-19T02:46:14;17.90;;;16.17;;
20649;SDS011;10484;48.736;9.332;2022-08-19T02:48:45;14.53;;;12.93;;
20649;SDS011;10484;48.736;9.332;2022-08-19T02:51:20;17.73;;;15.93;;
20649;SDS011;10484;48.736;9.332;2022-08-19T02:53:47;15.53;;;14.03;;
20649;SDS011;10484;48.736;9.332;2022-08-19T02:56:13;18.70;;;16.90;;
20649;SDS011;10484;48.736;9.332;2022-08-19T02:58:39;18.33;;;16.37;;
20649;SDS011;10484;48.736;9.332;2022-08-19T03:01:05;18.73;;;16.13;;
20649;SDS011;10484;48.736;9.332;2022-08-19T03:03:31;18.20;;;16.30;;
20649;SDS011;10484;48.736;9.332;2022-08-19T03:06:10;18.40;;;16.00;;
20649;SDS011;10484;48.736;9.332;2022-08-19T03:08:40;16.90;;;15.20;;
20649;SDS011;10484;48.736;9.332;2022-08-19T03:11:14;16.97;;;15.37;;
20649;SDS011;10484;48.736;9.332;2022-08-19T03:13:41;19.77;;;17.80;;
20649;SDS011;10484;48.736;9.332;2022-08-19T03:16:08;15.73;;;14.23;;
20649;SDS011;10484;48.736;9.332;2022-08-19T03:18:34;22.03;;;19.87;;
20649;SDS011;10484;48.736;9.332;2022-08-19T03:20:59;16.00;;;14.30;;
20649;SDS011;10484;48.736;9.332;2022-08-19T03:23:25;17.47;;;15.60;;
20649;SDS011;10484;48.736;9.332;2022-08-19T03:25:52;18.47;;;16.57;;
20649;SDS011;10484;48.736;9.332;2022-08-19T03:28:19;20.40;;;18.40;;
20649;SDS011;10484;48.736;9.332;2022-08-19T03:30:58;18.40;;;16.60;;
20649;SDS011;10484;48.736;9.332;2022-08-19T03:33:26;18.50;;;16.57;;
20649;SDS011;10484;48.736;9.332;2022-08-19T03:36:00;20.97;;;18.80;;
20649;SDS011;10484;48.736;9.332;2022-08-19T03:38:30;19.47;;;17.40;;
20649;SDS011;10484;48.736;9.332;2022-08-19T03:40:57;19.27;;;16.87;;
20649;SDS011;10484;48.736;9.332;2022-08-19T03:43:23;16.40;;;14.70;;
20649;SDS011;10484;48.736;9.332;2022-08-19T03:45:49;21.47;;;18.27;;
20649;SDS011;10484;48.736;9.332;2022-08-19T03:48:25;20.90;;;17.90;;
20649;SDS011;10484;48.736;9.332;2022-08-19T03:50:51;20.40;;;18.40;;
20649;SDS011;10484;48.736;9.332;2022-08-19T03:53:16;21.77;;;19.43;;
20649;SDS011;10484;48.736;9.332;2022-08-19T03:55:42;17.77;;;15.97;;
20649;SDS011;10484;48.736;9.332;2022-08-19T03:58:07;18.43;;;16.53;;
20649;SDS011;10484;48.736;9.332;2022-08-19T04:00:33;20.73;;;18.53;;
20649;SDS011;10484;48.736;9.332;2022-08-19T04:02:59;18.80;;;16.97;;
20649;SDS011;10484;48.736;9.332;2022-08-19T04:05:26;19.80;;;17.03;;
20649;SDS011;10484;48.736;9.332;2022-08-19T04:07:53;20.37;;;18.10;;
20649;SDS011;10484;48.736;9.332;2022-08-19T04:10:23;22.30;;;19.30;;
20649;SDS011;10484;48.736;9.332;2022-08-19T04:12:49;19.60;;;17.63;;
20649;SDS011;10484;48.736;9.332;2022-08-19T04:15:15;16.87;;;15.27;;
20649;SDS011;10484;48.736;9.332;2022-08-19T04:17:41;17.70;;;16.00;;
20649;SDS011;10484;48.736;9.332;2022-08-19T04:20:07;18.83;;;16.67;;
20649;SDS011;10484;48.736;9.332;2022-08-19T04:22:32;18.83;;;16.97;;
20649;SDS011;10484;48.736;9.332;2022-08-19T04:24:58;21.80;;;19.50;;
20649;SDS011;10484;48.736;9.332;2022-08-19T04:27:24;20.73;;;18.73;;
20649;SDS011;10484;48.736;9.332;2022-08-19T04:29:49;23.37;;;20.63;;
20649;SDS011;10484;48.736;9.332;2022-08-19T04:32:15;20.40;;;17.40;;
20649;SDS011;10484;48.736;9.332;2022-08-19T04:34:40;19.63;;;17.63;;
20649;SDS011;10484;48.736;9.332;2022-08-19T04:37:07;21.80;;;19.60;;
20649;SDS011;10484;48.736;9.332;2022-08-19T04:39:36;22.77;;;20.33;;
20649;SDS011;10484;48.736;9.332;2022-08-19T04:42:21;23.77;;;21.27;;
20649;SDS011;10484;48.736;9.332;2022-08-19T04:45:08;23.47;;;19.70;;
20649;SDS011;10484;48.736;9.332;2022-08-19T04:47:37;27.53;;;22.30;;
20649;SDS011;10484;48.736;9.332;2022-08-19T04:50:04;25.43;;;22.50;;
20649;SDS011;10484;48.736;9.332;2022-08-19T04:52:30;24.37;;;21.80;;
20649;SDS011;10484;48.736;9.332;2022-08-19T04:54:57;23.70;;;21.30;;
20649;SDS011;10484;48.736;9.332;2022-08-19T04:57:23;25.23;;;22.57;;
20649;SDS011;10484;48.736;9.332;2022-08-19T04:59:49;24.27;;;21.27;;
20649;SDS011;10484;48.736;9.332;2022-08-19T05:02:19;23.57;;;21.17;;
20649;SDS011;10484;48.736;9.332;2022-08-19T05:04:47;23.83;;;21.33;;
20649;SDS011;10484;48.736;9.332;2022-08-19T05:07:13;26.50;;;22.20;;
20649;SDS011;10484;48.736;9.332;2022-08-19T05:09:39;24.10;;;21.03;;
20649;SDS011;10484;48.736;9.332;2022-08-19T05:12:04;22.60;;;20.33;;
20649;SDS011;10484;48.736;9.332;2022-08-19T05:14:31;24.93;;;22.20;;
20649;SDS011;10484;48.736;9.332;2022-08-19T05:16:57;23.60;;;21.20;;
20649;SDS011;10484;48.736;9.332;2022-08-19T05:19:22;24.47;;;21.67;;
20649;SDS011;10484;48.736;9.332;2022-08-19T05:22:06;23.03;;;20.63;;
20649;SDS011;10484;48.736;9.332;2022-08-19T05:24:50;22.30;;;20.10;;
20649;SDS011;10484;48.736;9.332;2022-08-19T05:27:16;25.27;;;22.60;;
20649;SDS011;10484;48.736;9.332;2022-08-19T05:29:42;24.20;;;21.73;;
20649;SDS011;10484;48.736;9.332;2022-08-19T05:32:07;23.27;;;20.90;;
20649;SDS011;10484;48.736;9.332;2022-08-19T05:34:35;23.50;;;21.00;;
20649;SDS011;10484;48.736;9.332;2022-08-19T05:37:03;22.70;;;20.40;;
20649;SDS011;10484;48.736;9.332;2022-08-19T05:39:30;25.97;;;23.57;;
20649;SDS011;10484;48.736;9.332;2022-08-19T05:41:59;23.67;;;21.37;;
20649;SDS011;10484;48.736;9.332;2022-08-19T05:44:28;22.80;;;20.43;;
20649;SDS011;10484;48.736;9.332;2022-08-19T05:46:56;23.90;;;21.60;;
20649;SDS011;10484;48.736;9.332;2022-08-19T05:49:23;23.97;;;21.50;;
20649;SDS011;10484;48.736;9.332;2022-08-19T05:51:50;24.63;;;21.80;;
20649;SDS011;10484;48.736;9.332;2022-08-19T05:54:17;25.60;;;21.80;;
20649;SDS011;10484;48.736;9.332;2022-08-19T05:56:43;26.03;;;23.20;;
20649;SDS011;10484;48.736;9.332;2022-08-19T05:59:12;25.67;;;22.90;;
20649;SDS011;10484;48.736;9.332;2022-08-19T06:01:40;24.60;;;22.10;;
20649;SDS011;10484;48.736;9.332;2022-08-19T06:04:07;23.53;;;21.03;;
20649;SDS011;10484;48.736;9.332;2022-08-19T06:06:34;22.93;;;20.63;;
20649;SDS011;10484;48.736;9.332;2022-08-19T06:09:01;24.73;;;22.33;;
20649;SDS011;10484;48.736;9.332;2022-08-19T06:11:32;26.93;;;24.13;;
20649;SDS011;10484;48.736;9.332;2022-08-19T06:14:05;24.90;;;22.33;;
20649;SDS011;10484;48.736;9.332;2022-08-19T06:16:36;27.17;;;24.43;;
20649;SDS011;10484;48.736;9.332;2022-08-19T06:19:05;25.70;;;23.00;;
20649;SDS011;10484;48.736;9.332;2022-08-19T06:21:33;27.07;;;24.27;;
20649;SDS011;10484;48.736;9.332;2022-08-19T06:24:01;25.53;;;23.13;;
20649;SDS011;10484;48.736;9.332;2022-08-19T06:26:28;25.60;;;22.90;;
20649;SDS011;10484;48.736;9.332;2022-08-19T06:28:54;25.63;;;22.80;;
20649;SDS011;10484;48.736;9.332;2022-08-19T06:31:22;27.07;;;24.23;;
20649;SDS011;10484;48.736;9.332;2022-08-19T06:33:49;26.37;;;23.77;;
20649;SDS011;10484;48.736;9.332;2022-08-19T06:36:26;27.63;;;24.73;;
20649;SDS011;10484;48.736;9.332;2022-08-19T06:38:56;26.97;;;24.03;;
20649;SDS011;10484;48.736;9.332;2022-08-19T06:41:22;28.30;;;25.30;;
20649;SDS011;10484;48.736;9.332;2022-08-19T06:43:51;29.37;;;26.07;;
20649;SDS011;10484;48.736;9.332;2022-08-19T06:46:18;28.00;;;25.03;;
20649;SDS011;10484;48.736;9.332;2022-08-19T06:48:44;30.07;;;26.77;;
20649;SDS011;10484;48.736;9.332;2022-08-19T06:51:11;28.47;;;24.67;;
20649;SDS011;10484;48.736;9.332;2022-08-19T06:53:43;27.03;;;24.13;;
20649;SDS011;10484;48.736;9.332;2022-08-19T06:56:12;27.60;;;23.70;;
20649;SDS011;10484;48.736;9.332;2022-08-19T06:58:39;29.63;;;26.73;;
20649;SDS011;10484;48.736;9.332;2022-08-19T07:01:05;27.70;;;24.87;;
20649;SDS011;10484;48.736;9.332;2022-08-19T07:03:33;29.77;;;26.50;;
20649;SDS011;10484;48.736;9.332;2022-08-19T07:06:03;29.77;;;26.70;;
20649;SDS011;10484;48.736;9.332;2022-08-19T07:08:34;31.73;;;28.27;;
20649;SDS011;10484;48.736;9.332;2022-08-19T07:11:09;32.40;;;29.10;;
20649;SDS011;10484;48.736;9.332;2022-08-19T07:13:37;31.13;;;27.80;;
20649;SDS011;10484;48.736;9.332;2022-08-19T07:16:04;32.00;;;28.67;;
20649;SDS011;10484;48.736;9.332;2022-08-19T07:18:31;31.33;;;28.20;;
20649;SDS011;10484;48.736;9.332;2022-08-19T07:21:10;31.90;;;28.77;;
20649;SDS011;10484;48.736;9.332;2022-08-19T07:23:38;33.13;;;29.63;;
20649;SDS011;10484;48.736;9.332;2022-08-19T07:26:05;33.60;;;30.20;;
20649;SDS011;10484;48.736;9.332;2022-08-19T07:28:51;31.90;;;28.50;;
20649;SDS011;10484;48.736;9.332;2022-08-19T07:31:19;32.20;;;28.83;;
20649;SDS011;10484;48.736;9.332;2022-08-19T07:33:48;34.10;;;30.50;;
20649;SDS011;10484;48.736;9.332;2022-08-19T07:36:16;34.37;;;29.70;;
20649;SDS011;10484;48.736;9.332;2022-08-19T07:38:45;35.40;;;31.67;;
20649;SDS011;10484;48.736;9.332;2022-08-19T07:41:13;33.97;;;30.47;;
20649;SDS011;10484;48.736;9.332;2022-08-19T07:43:41;36.13;;;32.27;;
20649;SDS011;10484;48.736;9.332;2022-08-19T07:46:08;35.93;;;31.83;;
20649;SDS011;10484;48.736;9.332;2022-08-19T07:48:35;34.43;;;30.63;;
20649;SDS011;10484;48.736;9.332;2022-08-19T07:51:02;33.27;;;29.80;;
20649;SDS011;10484;48.736;9.332;2022-08-19T07:53:30;35.80;;;32.10;;
20649;SDS011;10484;48.736;9.332;2022-08-19T07:55:57;38.57;;;32.30;;
20649;SDS011;10484;48.736;9.332;2022-08-19T07:58:28;36.30;;;32.40;;
20649;SDS011;10484;48.736;9.332;2022-08-19T08:00:55;33.80;;;29.80;;
20649;SDS011;10484;48.736;9.332;2022-08-19T08:03:21;36.73;;;32.83;;
20649;SDS011;10484;48.736;9.332;2022-08-19T08:06:10;36.80;;;32.67;;
20649;SDS011;10484;48.736;9.332;2022-08-19T08:08:56;43.07;;;35.30;;
20649;SDS011;10484;48.736;9.332;2022-08-19T08:11:50;36.73;;;32.17;;
20649;SDS011;10484;48.736;9.332;2022-08-19T08:14:31;39.23;;;33.53;;
20649;SDS011;10484;48.736;9.332;2022-08-19T08:17:01;37.80;;;33.13;;
20649;SDS011;10484;48.736;9.332;2022-08-19T08:19:28;35.80;;;31.37;;
20649;SDS011;10484;48.736;9.332;2022-08-19T08:21:55;37.87;;;33.60;;
20649;SDS011;10484;48.736;9.332;2022-08-19T08:24:22;40.43;;;33.07;;
20649;SDS011;10484;48.736;9.332;2022-08-19T08:26:50;36.93;;;32.37;;
20649;SDS011;10484;48.736;9.332;2022-08-19T08:29:16;35.67;;;31.57;;
20649;SDS011;10484;48.736;9.332;2022-08-19T08:31:42;37.97;;;31.97;;
20649;SDS011;10484;48.736;9.332;2022-08-19T08:34:09;34.90;;;30.10;;
20649;SDS011;10484;48.736;9.332;2022-08-19T08:36:43;34.43;;;30.57;;
20649;SDS011;10484;48.736;9.332;2022-08-19T08:39:14;33.57;;;30.13;;
20649;SDS011;10484;48.736;9.332;2022-08-19T08:44:22;35.63;;;31.87;;
20649;SDS011;10484;48.736;9.332;2022-08-19T08:46:58;33.67;;;30.20;;
20649;SDS011;10484;48.736;9.332;2022-08-19T08:52:22;31.60;;;28.20;;
20649;SDS011;10484;48.736;9.332;2022-08-19T08:54:52;33.33;;;29.97;;
20649;SDS011;10484;48.736;9.332;2022-08-19T08:57:23;32.80;;;29.40;;
20649;SDS011;10484;48.736;9.332;2022-08-19T08:59:52;34.37;;;30.67;;
20649;SDS011;10484;48.736;9.332;2022-08-19T09:02:21;34.97;;;31.40;;
20649;SDS011;10484;48.736;9.332;2022-08-19T09:04:47;32.07;;;28.80;;
20649;SDS011;10484;48.736;9.332;2022-08-19T09:09:49;30.60;;;27.47;;
20649;SDS011;10484;48.736;9.332;2022-08-19T09:15:22;33.50;;;29.87;;
20649;SDS011;10484;48.736;9.332;2022-08-19T09:18:01;31.80;;;28.60;;
20649;SDS011;10484;48.736;9.332;2022-08-19T09:20:28;33.17;;;29.63;;
20649;SDS011;10484;48.736;9.332;2022-08-19T09:22:55;33.00;;;27.80;;
20649;SDS011;10484;48.736;9.332;2022-08-19T09:25:22;34.57;;;29.67;;
20649;SDS011;10484;48.736;9.332;2022-08-19T09:27:48;33.67;;;30.27;;
20649;SDS011;10484;48.736;9.332;2022-08-19T09:30:18;35.53;;;27.77;;
20649;SDS011;10484;48.736;9.332;2022-08-19T09:32:47;34.00;;;30.33;;
20649;SDS011;10484;48.736;9.332;2022-08-19T09:35:13;31.40;;;28.10;;
20649;SDS011;10484;48.736;9.332;2022-08-19T09:37:40;33.73;;;28.63;;
20649;SDS011;10484;48.736;9.332;2022-08-19T09:40:06;32.90;;;29.40;;
20649;SDS011;10484;48.736;9.332;2022-08-19T09:42:32;29.87;;;26.87;;
20649;SDS011;10484;48.736;9.332;2022-08-19T09:44:58;31.87;;;28.57;;
20649;SDS011;10484;48.736;9.332;2022-08-19T09:47:24;31.70;;;28.30;;
20649;SDS011;10484;48.736;9.332;2022-08-19T09:49:50;29.87;;;26.80;;
20649;SDS011;10484;48.736;9.332;2022-08-19T09:52:16;29.87;;;26.57;;
20649;SDS011;10484;48.736;9.332;2022-08-19T09:54:43;30.17;;;26.23;;
20649;SDS011;10484;48.736;9.332;2022-08-19T09:57:08;31.77;;;28.67;;
20649;SDS011;10484;48.736;9.332;2022-08-19T09:59:34;33.20;;;27.83;;
20649;SDS011;10484;48.736;9.332;2022-08-19T10:02:00;29.87;;;26.73;;
20649;SDS011;10484;48.736;9.332;2022-08-19T10:04:26;33.50;;;29.53;;
20649;SDS011;10484;48.736;9.332;2022-08-19T10:07:12;32.30;;;28.90;;
20649;SDS011;10484;48.736;9.332;2022-08-19T10:09:38;33.40;;;29.80;;
20649;SDS011;10484;48.736;9.332;2022-08-19T10:12:05;32.47;;;29.10;;
20649;SDS011;10484;48.736;9.332;2022-08-19T10:14:32;33.83;;;30.00;;
20649;SDS011;10484;48.736;9.332;2022-08-19T10:16:58;32.97;;;27.93;;
20649;SDS011;10484;48.736;9.332;2022-08-19T10:19:25;33.40;;;30.00;;
20649;SDS011;10484;48.736;9.332;2022-08-19T10:21:53;35.07;;;30.00;;
20649;SDS011;10484;48.736;9.332;2022-08-19T10:24:19;33.00;;;29.60;;
20649;SDS011;10484;48.736;9.332;2022-08-19T10:26:45;35.13;;;31.03;;
20649;SDS011;10484;48.736;9.332;2022-08-19T10:29:13;32.40;;;29.03;;
20649;SDS011;10484;48.736;9.332;2022-08-19T10:31:41;37.90;;;30.17;;
20649;SDS011;10484;48.736;9.332;2022-08-19T10:34:06;37.30;;;30.10;;
20649;SDS011;10484;48.736;9.332;2022-08-19T10:36:34;33.77;;;30.20;;
20649;SDS011;10484;48.736;9.332;2022-08-19T10:39:03;35.33;;;31.57;;
20649;SDS011;10484;48.736;9.332;2022-08-19T10:41:32;35.00;;;30.57;;
20649;SDS011;10484;48.736;9.332;2022-08-19T10:44:02;36.70;;;30.83;;
20649;SDS011;10484;48.736;9.332;2022-08-19T10:46:31;35.07;;;31.37;;
20649;SDS011;10484;48.736;9.332;2022-08-19T10:48:59;36.80;;;32.80;;
20649;SDS011;10484;48.736;9.332;2022-08-19T10:51:26;38.60;;;34.10;;
20649;SDS011;10484;48.736;9.332;2022-08-19T10:54:11;41.60;;;34.70;;
20649;SDS011;10484;48.736;9.332;2022-08-19T10:56:37;37.60;;;33.60;;
20649;SDS011;10484;48.736;9.332;2022-08-19T10:59:19;38.00;;;33.33;;
20649;SDS011;10484;48.736;9.332;2022-08-19T11:01:51;41.30;;;33.57;;
20649;SDS011;10484;48.736;9.332;2022-08-19T11:04:17;44.50;;;34.27;;
20649;SDS011;10484;48.736;9.332;2022-08-19T11:06:45;43.03;;;36.20;;
20649;SDS011;10484;48.736;9.332;2022-08-19T11:09:14;38.13;;;33.90;;
20649;SDS011;10484;48.736;9.332;2022-08-19T11:11:45;45.77;;;34.23;;
20649;SDS011;10484;48.736;9.332;2022-08-19T11:14:13;41.67;;;33.80;;
20649;SDS011;10484;48.736;9.332;2022-08-19T11:16:47;39.27;;;33.57;;
20649;SDS011;10484;48.736;9.332;2022-08-19T11:19:13;40.33;;;33.67;;
20649;SDS011;10484;48.736;9.332;2022-08-19T11:21:43;41.00;;;35.67;;
20649;SDS011;10484;48.736;9.332;2022-08-19T11:24:12;43.10;;;35.70;;
20649;SDS011;10484;48.736;9.332;2022-08-19T11:26:46;39.80;;;34.63;;
20649;SDS011;10484;48.736;9.332;2022-08-19T11:29:14;44.03;;;34.80;;
20649;SDS011;10484;48.736;9.332;2022-08-19T11:31:42;42.07;;;34.73;;
20649;SDS011;10484;48.736;9.332;2022-08-19T11:34:11;42.67;;;34.33;;
20649;SDS011;10484;48.736;9.332;2022-08-19T11:36:42;41.57;;;35.73;;
20649;SDS011;10484;48.736;9.332;2022-08-19T11:39:10;38.77;;;34.70;;
20649;SDS011;10484;48.736;9.332;2022-08-19T11:41:37;44.40;;;36.00;;
20649;SDS011;10484;48.736;9.332;2022-08-19T11:44:03;40.37;;;34.40;;
20649;SDS011;10484;48.736;9.332;2022-08-19T11:46:29;40.20;;;35.83;;
20649;SDS011;10484;48.736;9.332;2022-08-19T11:48:56;43.10;;;36.83;;
20649;SDS011;10484;48.736;9.332;2022-08-19T11:51:24;44.13;;;36.63;;
20649;SDS011;10484;48.736;9.332;2022-08-19T11:53:51;49.20;;;39.50;;
20649;SDS011;10484;48.736;9.332;2022-08-19T11:56:18;41.80;;;35.80;;
20649;SDS011;10484;48.736;9.332;2022-08-19T11:58:43;39.93;;;34.27;;
20649;SDS011;10484;48.736;9.332;2022-08-19T12:01:13;42.43;;;34.57;;
20649;SDS011;10484;48.736;9.332;2022-08-19T12:03:41;38.83;;;34.43;;
20649;SDS011;10484;48.736;9.332;2022-08-19T12:06:11;41.93;;;37.53;;
20649;SDS011;10484;48.736;9.332;2022-08-19T12:08:39;41.77;;;35.13;;
20649;SDS011;10484;48.736;9.332;2022-08-19T12:11:06;40.73;;;35.60;;
20649;SDS011;10484;48.736;9.332;2022-08-19T12:13:35;39.80;;;33.97;;
20649;SDS011;10484;48.736;9.332;2022-08-19T12:16:07;41.30;;;36.57;;
20649;SDS011;10484;48.736;9.332;2022-08-19T12:18:38;45.10;;;35.13;;
20649;SDS011;10484;48.736;9.332;2022-08-19T12:21:17;43.27;;;37.30;;
20649;SDS011;10484;48.736;9.332;2022-08-19T12:23:48;41.97;;;36.73;;
20649;SDS011;10484;48.736;9.332;2022-08-19T12:26:15;44.23;;;36.87;;
20649;SDS011;10484;48.736;9.332;2022-08-19T12:28:41;43.10;;;37.27;;
20649;SDS011;10484;48.736;9.332;2022-08-19T12:31:07;39.77;;;33.90;;
20649;SDS011;10484;48.736;9.332;2022-08-19T12:33:36;41.23;;;35.60;;
20649;SDS011;10484;48.736;9.332;2022-08-19T12:36:03;46.37;;;38.13;;
20649;SDS011;10484;48.736;9.332;2022-08-19T12:38:30;42.13;;;33.83;;
20649;SDS011;10484;48.736;9.332;2022-08-19T12:40:57;40.30;;;35.90;;
20649;SDS011;10484;48.736;9.332;2022-08-19T12:43:23;39.57;;;34.27;;
20649;SDS011;10484;48.736;9.332;2022-08-19T12:45:49;46.30;;;36.57;;
20649;SDS011;10484;48.736;9.332;2022-08-19T12:48:15;45.90;;;36.40;;
20649;SDS011;10484;48.736;9.332;2022-08-19T12:50:41;47.17;;;38.33;;
20649;SDS011;10484;48.736;9.332;2022-08-19T12:53:10;53.00;;;37.10;;
20649;SDS011;10484;48.736;9.332;2022-08-19T12:55:36;44.20;;;36.50;;
20649;SDS011;10484;48.736;9.332;2022-08-19T12:58:02;38.13;;;34.03;;
20649;SDS011;10484;48.736;9.332;2022-08-19T13:00:28;44.10;;;35.83;;
20649;SDS011;10484;48.736;9.332;2022-08-19T13:02:57;43.90;;;37.93;;
20649;SDS011;10484;48.736;9.332;2022-08-19T13:05:25;44.20;;;35.13;;
20649;SDS011;10484;48.736;9.332;2022-08-19T13:07:53;39.37;;;33.17;;
20649;SDS011;10484;48.736;9.332;2022-08-19T13:10:26;39.70;;;34.50;;
20649;SDS011;10484;48.736;9.332;2022-08-19T13:12:54;42.80;;;35.03;;
20649;SDS011;10484;48.736;9.332;2022-08-19T13:15:22;45.80;;;37.73;;
20649;SDS011;10484;48.736;9.332;2022-08-19T13:17:49;41.90;;;37.33;;
20649;SDS011;10484;48.736;9.332;2022-08-19T13:20:17;47.60;;;37.63;;
20649;SDS011;10484;48.736;9.332;2022-08-19T13:22:44;45.10;;;37.43;;
20649;SDS011;10484;48.736;9.332;2022-08-19T13:25:11;47.37;;;39.90;;
20649;SDS011;10484;48.736;9.332;2022-08-19T13:27:37;43.77;;;36.30;;
20649;SDS011;10484;48.736;9.332;2022-08-19T13:30:04;41.87;;;37.23;;
20649;SDS011;10484;48.736;9.332;2022-08-19T13:32:51;44.40;;;36.47;;
20649;SDS011;10484;48.736;9.332;2022-08-19T13:35:35;44.83;;;36.90;;
20649;SDS011;10484;48.736;9.332;2022-08-19T13:38:00;42.90;;;35.67;;
20649;SDS011;10484;48.736;9.332;2022-08-19T13:40:29;45.63;;;37.83;;
20649;SDS011;10484;48.736;9.332;2022-08-19T13:42:59;45.70;;;37.57;;
20649;SDS011;10484;48.736;9.332;2022-08-19T13:45:26;45.37;;;37.13;;
20649;SDS011;10484;48.736;9.332;2022-08-19T13:47:54;44.90;;;39.60;;
20649;SDS011;10484;48.736;9.332;2022-08-19T13:50:23;42.17;;;37.60;;
20649;SDS011;10484;48.736;9.332;2022-08-19T13:52:51;46.13;;;37.40;;
20649;SDS011;10484;48.736;9.332;2022-08-19T13:55:17;43.10;;;37.53;;
20649;SDS011;10484;48.736;9.332;2022-08-19T13:57:43;43.83;;;37.17;;
20649;SDS011;10484;48.736;9.332;2022-08-19T14:00:11;44.57;;;38.20;;
20649;SDS011;10484;48.736;9.332;2022-08-19T14:02:39;44.20;;;35.27;;
20649;SDS011;10484;48.736;9.332;2022-08-19T14:05:06;48.73;;;39.73;;
20649;SDS011;10484;48.736;9.332;2022-08-19T14:07:33;45.23;;;38.83;;
20649;SDS011;10484;48.736;9.332;2022-08-19T14:09:59;48.50;;;37.93;;
20649;SDS011;10484;48.736;9.332;2022-08-19T14:12:25;44.40;;;36.33;;
20649;SDS011;10484;48.736;9.332;2022-08-19T14:14:51;45.47;;;38.23;;
20649;SDS011;10484;48.736;9.332;2022-08-19T14:17:16;44.37;;;36.33;;
20649;SDS011;10484;48.736;9.332;2022-08-19T14:19:42;46.40;;;36.70;;
20649;SDS011;10484;48.736;9.332;2022-08-19T14:22:08;41.33;;;35.20;;
20649;SDS011;10484;48.736;9.332;2022-08-19T14:24:34;49.20;;;36.60;;
20649;SDS011;10484;48.736;9.332;2022-08-19T14:27:03;49.10;;;36.77;;
20649;SDS011;10484;48.736;9.332;2022-08-19T14:29:29;47.13;;;39.87;;
20649;SDS011;10484;48.736;9.332;2022-08-19T14:31:55;45.90;;;38.00;;
20649;SDS011;10484;48.736;9.332;2022-08-19T14:34:24;42.50;;;36.73;;
20649;SDS011;10484;48.736;9.332;2022-08-19T14:36:51;46.10;;;38.03;;
20649;SDS011;10484;48.736;9.332;2022-08-19T14:39:17;47.67;;;39.00;;
20649;SDS011;10484;48.736;9.332;2022-08-19T14:41:43;47.37;;;37.67;;